Aeroporto :
LOGIN :

Iscrizione | Disclaimer

   EN    FR    IT 

 










Sommario :    VFR   VFR Marginale   IFR   IFR Intensivo   IFR Molto Intensivo
Visibilità : 
Base nubi : 
>= 8 km
>= 3000ft
5 / 8 km
1000 / 3000 ft
1500m / 5 km
500 / 1000 ft
800 / 1500m
200 / 500 ft
< 800m
< 200 ft
Simboli :   Temporali  Nebbia  Neve Forte  Precipitazioni Forti  Vento > 20 kt
SIGMETs :   Varie  Temporali  Ghiacco  Turbolenza  Onda orograficha  Ceneri Vulcaniche







- Altitudine del aeroporto : 614 ft
- Codice IATA : CRL


EBCI - Charleroi

ULTIMO METAR :
  • 202350Z 13007KT 9999 BKN022 03/M01 Q1007 NOSIG

METARs OBSOLETI :
  • 202320Z 13007KT 110V170 9999 BKN026 03/M01 Q1007 NOSIG
  • 202250Z 14007KT 9999 BKN024 03/M01 Q1006 NOSIG
  • 202220Z 14008KT 9999 BKN024 03/M01 Q1006 NOSIG
  • 202150Z 12008KT 9999 BKN026 03/M01 Q1006 NOSIG
  • 202120Z 13007KT 100V160 9999 SCT030 03/M01 Q1006 NOSIG

TAF TAF EBCI
Valido dal 21 a 00 ore il 22 a 06 ore UTC


202320Z 2100/2206 12008KT 9999 SCT020
PROB40
TEMPO 2100/2104 3800 SHSNRA BKN012
PROB30
TEMPO 2101/2104 BKN006
TEMPO 2123/2206 BKN006
PROB40
TEMPO 2202/2206 2200 DZ FZDZ BR BKN002
Nessun NOTAM noto per questo aeroporto.



MetMap, La meteo Aeronautica in un colpo d'occhio ! - Copyright ORBIFLY Dicembre 2007 - Disclaimer

ORBIFLY MET'MAP TEAM :

Programmazione e sviluppo : Alexandra Zaïnal
Concezione e sviluppo : Baudouin d'Aumeries
Co-Programmazione e sviluppo : Marc-Olivier Méhu
Supporto tecnico e logistico : Manuel Goepfert
Aiuto per la traduzione : Arnaldo La Scala

Contatto : metmap@orbifly.com




FONTI E CREDITI :

   NOAA